sensor_id;sensor_type;location;lat;lon;timestamp;pressure;altitude;pressure_sealevel;temperature;humidity
59110;BME280;44895;47.438;18.978;2023-03-02T00:02:16;100698.81;;;0.68;100.00
59110;BME280;44895;47.438;18.978;2023-03-02T00:05:21;100709.25;;;0.30;100.00
59110;BME280;44895;47.438;18.978;2023-03-02T00:08:24;100698.97;;;0.27;100.00
59110;BME280;44895;47.438;18.978;2023-03-02T00:11:29;100705.50;;;0.45;100.00
59110;BME280;44895;47.438;18.978;2023-03-02T00:14:33;100700.28;;;0.57;100.00
59110;BME280;44895;47.438;18.978;2023-03-02T00:17:37;100707.16;;;0.39;100.00
59110;BME280;44895;47.438;18.978;2023-03-02T00:20:40;100700.66;;;0.22;100.00
59110;BME280;44895;47.438;18.978;2023-03-02T00:23:44;100697.78;;;0.17;100.00
59110;BME280;44895;47.438;18.978;2023-03-02T00:26:47;100691.50;;;0.43;100.00
59110;BME280;44895;47.438;18.978;2023-03-02T00:29:51;100684.94;;;0.39;100.00
59110;BME280;44895;47.438;18.978;2023-03-02T00:32:55;100685.22;;;0.17;100.00
59110;BME280;44895;47.438;18.978;2023-03-02T00:36:01;100685.28;;;-0.10;100.00
59110;BME280;44895;47.438;18.978;2023-03-02T00:39:04;100686.81;;;0.31;100.00
59110;BME280;44895;47.438;18.978;2023-03-02T00:42:08;100678.84;;;0.11;100.00
59110;BME280;44895;47.438;18.978;2023-03-02T00:45:12;100668.81;;;0.07;100.00
59110;BME280;44895;47.438;18.978;2023-03-02T00:48:16;100673.13;;;0.01;100.00
59110;BME280;44895;47.438;18.978;2023-03-02T00:51:19;100676.84;;;0.07;100.00
59110;BME280;44895;47.438;18.978;2023-03-02T00:54:23;100673.75;;;0.17;100.00
59110;BME280;44895;47.438;18.978;2023-03-02T00:57:27;100661.88;;;0.51;100.00
59110;BME280;44895;47.438;18.978;2023-03-02T01:00:32;100665.66;;;0.30;100.00
59110;BME280;44895;47.438;18.978;2023-03-02T01:03:41;100657.78;;;-0.17;100.00
59110;BME280;44895;47.438;18.978;2023-03-02T01:06:45;100651.00;;;-0.20;100.00
59110;BME280;44895;47.438;18.978;2023-03-02T01:09:49;100647.38;;;0.27;100.00
59110;BME280;44895;47.438;18.978;2023-03-02T01:12:53;100643.16;;;-0.01;100.00
59110;BME280;44895;47.438;18.978;2023-03-02T01:16:03;100637.44;;;-0.25;100.00
59110;BME280;44895;47.438;18.978;2023-03-02T01:19:06;100632.50;;;-0.14;100.00
59110;BME280;44895;47.438;18.978;2023-03-02T01:22:10;100625.13;;;-0.12;100.00
59110;BME280;44895;47.438;18.978;2023-03-02T01:25:14;100617.53;;;-0.22;100.00
59110;BME280;44895;47.438;18.978;2023-03-02T01:28:18;100620.81;;;-0.27;100.00
59110;BME280;44895;47.438;18.978;2023-03-02T01:31:21;100602.13;;;-0.20;100.00
59110;BME280;44895;47.438;18.978;2023-03-02T01:34:25;100607.06;;;-0.24;100.00
59110;BME280;44895;47.438;18.978;2023-03-02T01:37:28;100598.63;;;-0.14;100.00
59110;BME280;44895;47.438;18.978;2023-03-02T01:40:32;100592.22;;;-0.06;100.00
59110;BME280;44895;47.438;18.978;2023-03-02T01:43:35;100584.84;;;-0.11;100.00
59110;BME280;44895;47.438;18.978;2023-03-02T01:46:40;100594.91;;;-0.06;100.00
59110;BME280;44895;47.438;18.978;2023-03-02T01:49:45;100578.94;;;0.26;100.00
59110;BME280;44895;47.438;18.978;2023-03-02T01:52:51;100590.50;;;0.13;100.00
59110;BME280;44895;47.438;18.978;2023-03-02T01:55:56;100578.84;;;0.01;100.00
59110;BME280;44895;47.438;18.978;2023-03-02T01:59:02;100585.06;;;-0.19;100.00
59110;BME280;44895;47.438;18.978;2023-03-02T02:02:08;100583.69;;;-0.35;100.00
59110;BME280;44895;47.438;18.978;2023-03-02T02:05:14;100572.34;;;-0.30;100.00
59110;BME280;44895;47.438;18.978;2023-03-02T02:08:20;100570.91;;;-0.20;100.00
59110;BME280;44895;47.438;18.978;2023-03-02T02:11:25;100576.47;;;-0.35;100.00
59110;BME280;44895;47.438;18.978;2023-03-02T02:14:28;100567.00;;;-0.30;100.00
59110;BME280;44895;47.438;18.978;2023-03-02T02:17:32;100575.03;;;-0.30;100.00
59110;BME280;44895;47.438;18.978;2023-03-02T02:20:38;100560.00;;;-0.11;100.00
59110;BME280;44895;47.438;18.978;2023-03-02T02:23:43;100579.56;;;-0.38;100.00
59110;BME280;44895;47.438;18.978;2023-03-02T02:26:53;100570.56;;;-0.50;100.00
59110;BME280;44895;47.438;18.978;2023-03-02T02:29:57;100569.78;;;-0.71;100.00
59110;BME280;44895;47.438;18.978;2023-03-02T02:33:01;100572.44;;;-0.64;100.00
59110;BME280;44895;47.438;18.978;2023-03-02T02:36:06;100566.06;;;-0.56;100.00
59110;BME280;44895;47.438;18.978;2023-03-02T02:39:18;100575.69;;;-0.55;100.00
59110;BME280;44895;47.438;18.978;2023-03-02T02:42:33;100569.38;;;-0.81;100.00
59110;BME280;44895;47.438;18.978;2023-03-02T02:45:37;100561.31;;;-0.47;100.00
59110;BME280;44895;47.438;18.978;2023-03-02T02:48:41;100556.56;;;-0.32;100.00
59110;BME280;44895;47.438;18.978;2023-03-02T02:51:45;100566.25;;;-0.58;100.00
59110;BME280;44895;47.438;18.978;2023-03-02T02:54:49;100563.59;;;-0.58;100.00
59110;BME280;44895;47.438;18.978;2023-03-02T02:57:56;100563.22;;;-0.68;100.00
59110;BME280;44895;47.438;18.978;2023-03-02T03:01:00;100561.16;;;-0.59;100.00
59110;BME280;44895;47.438;18.978;2023-03-02T03:04:04;100560.09;;;-0.52;100.00
59110;BME280;44895;47.438;18.978;2023-03-02T03:07:09;100543.88;;;-0.50;100.00
59110;BME280;44895;47.438;18.978;2023-03-02T03:10:22;100539.75;;;-0.46;100.00
59110;BME280;44895;47.438;18.978;2023-03-02T03:13:30;100544.72;;;-0.56;100.00
59110;BME280;44895;47.438;18.978;2023-03-02T03:16:33;100545.53;;;-0.62;100.00
59110;BME280;44895;47.438;18.978;2023-03-02T03:19:39;100548.00;;;-0.68;100.00
59110;BME280;44895;47.438;18.978;2023-03-02T03:22:43;100546.19;;;-0.94;100.00
59110;BME280;44895;47.438;18.978;2023-03-02T03:25:49;100553.34;;;-0.54;100.00
59110;BME280;44895;47.438;18.978;2023-03-02T03:28:52;100557.88;;;-0.68;100.00
59110;BME280;44895;47.438;18.978;2023-03-02T03:31:56;100557.44;;;-0.58;100.00
59110;BME280;44895;47.438;18.978;2023-03-02T03:35:00;100567.69;;;-0.55;100.00
59110;BME280;44895;47.438;18.978;2023-03-02T03:38:08;100577.34;;;-0.68;100.00
59110;BME280;44895;47.438;18.978;2023-03-02T03:41:12;100572.66;;;-0.79;100.00
59110;BME280;44895;47.438;18.978;2023-03-02T03:44:16;100565.47;;;-0.85;100.00
59110;BME280;44895;47.438;18.978;2023-03-02T03:47:21;100576.34;;;-0.67;100.00
59110;BME280;44895;47.438;18.978;2023-03-02T03:50:26;100575.94;;;-0.90;100.00
59110;BME280;44895;47.438;18.978;2023-03-02T03:53:30;100581.66;;;-1.07;100.00
59110;BME280;44895;47.438;18.978;2023-03-02T03:56:35;100586.63;;;-0.84;100.00
59110;BME280;44895;47.438;18.978;2023-03-02T03:59:40;100593.16;;;-0.93;100.00
59110;BME280;44895;47.438;18.978;2023-03-02T04:02:44;100585.78;;;-1.11;100.00
59110;BME280;44895;47.438;18.978;2023-03-02T04:05:48;100585.78;;;-1.04;100.00
59110;BME280;44895;47.438;18.978;2023-03-02T04:08:52;100588.25;;;-0.89;100.00
59110;BME280;44895;47.438;18.978;2023-03-02T04:11:56;100589.03;;;-1.16;100.00
59110;BME280;44895;47.438;18.978;2023-03-02T04:15:01;100588.88;;;-1.14;100.00
59110;BME280;44895;47.438;18.978;2023-03-02T04:18:05;100580.84;;;-1.21;100.00
59110;BME280;44895;47.438;18.978;2023-03-02T04:21:09;100584.13;;;-1.12;100.00
59110;BME280;44895;47.438;18.978;2023-03-02T04:24:13;100583.72;;;-1.16;100.00
59110;BME280;44895;47.438;18.978;2023-03-02T04:27:17;100577.56;;;-1.03;100.00
59110;BME280;44895;47.438;18.978;2023-03-02T04:30:23;100578.19;;;-1.01;100.00
59110;BME280;44895;47.438;18.978;2023-03-02T04:33:27;100574.72;;;-0.94;100.00
59110;BME280;44895;47.438;18.978;2023-03-02T04:36:32;100582.06;;;-1.17;100.00
59110;BME280;44895;47.438;18.978;2023-03-02T04:39:36;100571.41;;;-1.30;100.00
59110;BME280;44895;47.438;18.978;2023-03-02T04:42:39;100564.84;;;-1.27;100.00
59110;BME280;44895;47.438;18.978;2023-03-02T04:45:44;100561.97;;;-1.19;100.00
59110;BME280;44895;47.438;18.978;2023-03-02T04:48:47;100559.94;;;-0.84;100.00
59110;BME280;44895;47.438;18.978;2023-03-02T04:51:51;100558.69;;;-1.08;100.00
59110;BME280;44895;47.438;18.978;2023-03-02T04:54:54;100555.63;;;-1.18;100.00
59110;BME280;44895;47.438;18.978;2023-03-02T04:57:58;100569.16;;;-1.26;100.00
59110;BME280;44895;47.438;18.978;2023-03-02T05:01:01;100561.38;;;-1.15;100.00
59110;BME280;44895;47.438;18.978;2023-03-02T05:04:05;100575.09;;;-1.31;100.00
59110;BME280;44895;47.438;18.978;2023-03-02T05:07:09;100566.50;;;-1.20;100.00
59110;BME280;44895;47.438;18.978;2023-03-02T05:10:13;100566.91;;;-0.96;100.00
59110;BME280;44895;47.438;18.978;2023-03-02T05:13:17;100565.91;;;-0.95;100.00
59110;BME280;44895;47.438;18.978;2023-03-02T05:16:21;100561.19;;;-1.06;100.00
59110;BME280;44895;47.438;18.978;2023-03-02T05:19:24;100574.09;;;-1.10;100.00
59110;BME280;44895;47.438;18.978;2023-03-02T05:22:28;100576.56;;;-0.88;100.00
59110;BME280;44895;47.438;18.978;2023-03-02T05:25:33;100564.25;;;-0.96;100.00
59110;BME280;44895;47.438;18.978;2023-03-02T05:28:36;100568.97;;;-0.85;100.00
59110;BME280;44895;47.438;18.978;2023-03-02T05:31:41;100575.94;;;-0.97;100.00
59110;BME280;44895;47.438;18.978;2023-03-02T05:34:45;100580.66;;;-0.92;100.00
59110;BME280;44895;47.438;18.978;2023-03-02T05:37:49;100574.72;;;-0.94;100.00
59110;BME280;44895;47.438;18.978;2023-03-02T05:40:53;100579.81;;;-0.66;100.00
59110;BME280;44895;47.438;18.978;2023-03-02T05:43:56;100575.53;;;-1.01;100.00
59110;BME280;44895;47.438;18.978;2023-03-02T05:47:00;100583.94;;;-0.70;100.00
59110;BME280;44895;47.438;18.978;2023-03-02T05:50:03;100587.19;;;-0.55;100.00
59110;BME280;44895;47.438;18.978;2023-03-02T05:53:07;100584.97;;;-0.78;100.00
59110;BME280;44895;47.438;18.978;2023-03-02T05:56:11;100591.94;;;-0.57;100.00
59110;BME280;44895;47.438;18.978;2023-03-02T05:59:14;100587.38;;;-0.50;100.00
59110;BME280;44895;47.438;18.978;2023-03-02T06:02:18;100589.22;;;-0.30;100.00
59110;BME280;44895;47.438;18.978;2023-03-02T06:05:21;100596.31;;;-0.04;100.00
59110;BME280;44895;47.438;18.978;2023-03-02T06:08:26;100579.25;;;1.51;100.00
59110;BME280;44895;47.438;18.978;2023-03-02T06:11:30;100582.47;;;1.59;100.00
59110;BME280;44895;47.438;18.978;2023-03-02T06:14:34;100585.78;;;2.59;100.00
59110;BME280;44895;47.438;18.978;2023-03-02T06:17:38;100577.06;;;3.18;100.00
59110;BME280;44895;47.438;18.978;2023-03-02T06:20:42;100577.84;;;2.53;100.00
59110;BME280;44895;47.438;18.978;2023-03-02T06:23:46;100578.03;;;5.38;100.00
59110;BME280;44895;47.438;18.978;2023-03-02T06:26:51;100576.03;;;6.89;92.73
59110;BME280;44895;47.438;18.978;2023-03-02T06:29:55;100577.19;;;6.98;82.17
59110;BME280;44895;47.438;18.978;2023-03-02T06:32:58;100588.88;;;5.82;86.61
59110;BME280;44895;47.438;18.978;2023-03-02T06:36:02;100577.06;;;8.11;80.13
59110;BME280;44895;47.438;18.978;2023-03-02T06:39:06;100595.38;;;7.45;72.56
59110;BME280;44895;47.438;18.978;2023-03-02T06:42:10;100591.25;;;6.18;80.93
59110;BME280;44895;47.438;18.978;2023-03-02T06:45:14;100609.06;;;4.61;93.64
59110;BME280;44895;47.438;18.978;2023-03-02T06:48:17;100609.69;;;4.10;100.00
59110;BME280;44895;47.438;18.978;2023-03-02T06:51:21;100605.84;;;4.76;100.00
59110;BME280;44895;47.438;18.978;2023-03-02T06:54:25;100606.94;;;6.71;100.00
59110;BME280;44895;47.438;18.978;2023-03-02T06:57:29;100595.13;;;10.37;73.24
59110;BME280;44895;47.438;18.978;2023-03-02T07:00:36;100590.28;;;11.43;60.83
59110;BME280;44895;47.438;18.978;2023-03-02T07:03:39;100586.78;;;11.91;57.83
59110;BME280;44895;47.438;18.978;2023-03-02T07:06:43;100582.53;;;13.65;53.14
59110;BME280;44895;47.438;18.978;2023-03-02T07:09:47;100590.44;;;13.20;52.74
59110;BME280;44895;47.438;18.978;2023-03-02T07:12:50;100581.13;;;15.60;48.13
59110;BME280;44895;47.438;18.978;2023-03-02T07:15:55;100579.47;;;15.81;45.25
59110;BME280;44895;47.438;18.978;2023-03-02T07:18:58;100572.06;;;15.82;45.60
59110;BME280;44895;47.438;18.978;2023-03-02T07:22:02;100575.91;;;16.83;44.39
59110;BME280;44895;47.438;18.978;2023-03-02T07:25:06;100574.78;;;16.75;41.91
59110;BME280;44895;47.438;18.978;2023-03-02T07:28:09;100579.09;;;16.23;40.34
59110;BME280;44895;47.438;18.978;2023-03-02T07:31:14;100582.25;;;14.59;37.65
59110;BME280;44895;47.438;18.978;2023-03-02T07:34:17;100589.56;;;13.38;41.53
59110;BME280;44895;47.438;18.978;2023-03-02T07:37:22;100586.47;;;11.68;43.79
59110;BME280;44895;47.438;18.978;2023-03-02T07:40:25;100593.81;;;11.09;42.90
59110;BME280;44895;47.438;18.978;2023-03-02T07:43:29;100583.41;;;14.44;42.27
59110;BME280;44895;47.438;18.978;2023-03-02T07:46:32;100572.25;;;15.86;38.46
59110;BME280;44895;47.438;18.978;2023-03-02T07:49:36;100576.19;;;16.20;37.35
59110;BME280;44895;47.438;18.978;2023-03-02T07:52:40;100575.94;;;16.91;37.86
59110;BME280;44895;47.438;18.978;2023-03-02T07:55:43;100574.91;;;16.26;35.12
59110;BME280;44895;47.438;18.978;2023-03-02T07:58:47;100576.75;;;15.50;36.79
59110;BME280;44895;47.438;18.978;2023-03-02T08:01:50;100586.38;;;14.20;35.60
59110;BME280;44895;47.438;18.978;2023-03-02T08:04:54;100580.19;;;14.28;38.55
59110;BME280;44895;47.438;18.978;2023-03-02T08:07:57;100577.31;;;12.70;35.67
59110;BME280;44895;47.438;18.978;2023-03-02T08:11:09;100583.56;;;13.23;38.10
59110;BME280;44895;47.438;18.978;2023-03-02T08:14:12;100575.72;;;14.18;38.31
59110;BME280;44895;47.438;18.978;2023-03-02T08:17:16;100573.25;;;14.45;36.53
59110;BME280;44895;47.438;18.978;2023-03-02T08:20:20;100572.72;;;14.20;38.21
59110;BME280;44895;47.438;18.978;2023-03-02T08:23:23;100581.63;;;12.90;36.99
59110;BME280;44895;47.438;18.978;2023-03-02T08:26:27;100574.41;;;12.80;39.19
59110;BME280;44895;47.438;18.978;2023-03-02T08:29:31;100572.88;;;12.55;37.28
59110;BME280;44895;47.438;18.978;2023-03-02T08:32:35;100573.19;;;12.53;37.73
59110;BME280;44895;47.438;18.978;2023-03-02T08:35:38;100566.19;;;13.32;38.62
59110;BME280;44895;47.438;18.978;2023-03-02T08:38:42;100567.94;;;12.76;37.99
59110;BME280;44895;47.438;18.978;2023-03-02T08:41:45;100563.38;;;12.71;38.23
59110;BME280;44895;47.438;18.978;2023-03-02T08:44:51;100560.63;;;12.91;38.76
59110;BME280;44895;47.438;18.978;2023-03-02T08:47:55;100569.28;;;13.12;38.97
59110;BME280;44895;47.438;18.978;2023-03-02T08:51:00;100556.47;;;13.59;38.42
59110;BME280;44895;47.438;18.978;2023-03-02T08:54:04;100559.31;;;13.35;39.61
59110;BME280;44895;47.438;18.978;2023-03-02T08:57:09;100559.13;;;13.31;38.58
59110;BME280;44895;47.438;18.978;2023-03-02T09:00:12;100559.25;;;13.40;39.94
59110;BME280;44895;47.438;18.978;2023-03-02T09:03:17;100556.97;;;13.14;37.85
59110;BME280;44895;47.438;18.978;2023-03-02T09:06:20;100554.44;;;13.18;39.29
59110;BME280;44895;47.438;18.978;2023-03-02T09:09:24;100551.59;;;13.56;40.20
59110;BME280;44895;47.438;18.978;2023-03-02T09:12:27;100558.16;;;13.41;40.15
59110;BME280;44895;47.438;18.978;2023-03-02T09:15:31;100551.00;;;13.59;38.65
59110;BME280;44895;47.438;18.978;2023-03-02T09:18:35;100548.34;;;12.74;38.04
59110;BME280;44895;47.438;18.978;2023-03-02T09:21:38;100550.44;;;13.29;39.35
59110;BME280;44895;47.438;18.978;2023-03-02T09:24:42;100542.50;;;14.02;39.25
59110;BME280;44895;47.438;18.978;2023-03-02T09:27:46;100545.56;;;13.87;37.45
59110;BME280;44895;47.438;18.978;2023-03-02T09:30:50;100539.91;;;14.34;37.65
59110;BME280;44895;47.438;18.978;2023-03-02T09:33:54;100532.38;;;14.03;38.03
59110;BME280;44895;47.438;18.978;2023-03-02T09:36:58;100527.47;;;15.19;38.13
59110;BME280;44895;47.438;18.978;2023-03-02T09:40:03;100523.81;;;16.04;36.74
59110;BME280;44895;47.438;18.978;2023-03-02T09:52:49;100534.41;;;14.11;38.57
59110;BME280;44895;47.438;18.978;2023-03-02T09:55:55;100534.53;;;13.78;39.41
59110;BME280;44895;47.438;18.978;2023-03-02T09:59:07;100526.94;;;13.75;40.17
59110;BME280;44895;47.438;18.978;2023-03-02T10:05:30;100531.28;;;12.68;39.56
59110;BME280;44895;47.438;18.978;2023-03-02T10:08:36;100524.78;;;12.07;39.58
59110;BME280;44895;47.438;18.978;2023-03-02T10:14:59;100525.97;;;12.77;41.30
59110;BME280;44895;47.438;18.978;2023-03-02T10:18:12;100518.78;;;12.29;39.74
59110;BME280;44895;47.438;18.978;2023-03-02T10:21:42;100515.69;;;12.88;41.20
59110;BME280;44895;47.438;18.978;2023-03-02T10:24:52;100507.19;;;12.76;39.83
59110;BME280;44895;47.438;18.978;2023-03-02T10:31:32;100502.50;;;12.95;40.75
59110;BME280;44895;47.438;18.978;2023-03-02T10:34:36;100496.38;;;12.84;42.64
59110;BME280;44895;47.438;18.978;2023-03-02T10:37:40;100496.94;;;13.00;41.41
59110;BME280;44895;47.438;18.978;2023-03-02T10:40:50;100493.97;;;12.83;42.17
59110;BME280;44895;47.438;18.978;2023-03-02T10:44:01;100489.84;;;12.85;41.86
59110;BME280;44895;47.438;18.978;2023-03-02T10:47:17;100488.53;;;12.31;41.19
59110;BME280;44895;47.438;18.978;2023-03-02T10:50:21;100473.03;;;12.97;41.65
59110;BME280;44895;47.438;18.978;2023-03-02T10:53:25;100476.34;;;12.61;42.46
59110;BME280;44895;47.438;18.978;2023-03-02T10:56:28;100467.53;;;12.83;43.17
59110;BME280;44895;47.438;18.978;2023-03-02T10:59:42;100465.88;;;13.15;43.71
59110;BME280;44895;47.438;18.978;2023-03-02T11:02:48;100457.78;;;13.10;44.25
59110;BME280;44895;47.438;18.978;2023-03-02T11:05:51;100459.00;;;13.18;45.52
59110;BME280;44895;47.438;18.978;2023-03-02T11:09:07;100465.53;;;12.56;44.80
59110;BME280;44895;47.438;18.978;2023-03-02T11:12:14;100454.53;;;12.94;44.74
59110;BME280;44895;47.438;18.978;2023-03-02T11:15:23;100457.25;;;12.94;44.56
59110;BME280;44895;47.438;18.978;2023-03-02T11:18:37;100450.69;;;12.95;45.41
59110;BME280;44895;47.438;18.978;2023-03-02T11:21:43;100456.22;;;13.37;46.00
59110;BME280;44895;47.438;18.978;2023-03-02T11:24:50;100452.94;;;13.21;45.30
59110;BME280;44895;47.438;18.978;2023-03-02T11:27:58;100443.34;;;13.65;46.63
59110;BME280;44895;47.438;18.978;2023-03-02T11:31:04;100446.97;;;12.91;46.32
59110;BME280;44895;47.438;18.978;2023-03-02T11:34:28;100438.03;;;12.71;46.46
59110;BME280;44895;47.438;18.978;2023-03-02T11:40:42;100444.38;;;13.28;47.21
59110;BME280;44895;47.438;18.978;2023-03-02T11:43:47;100436.56;;;12.60;47.00
59110;BME280;44895;47.438;18.978;2023-03-02T11:46:52;100434.13;;;13.05;48.53
59110;BME280;44895;47.438;18.978;2023-03-02T11:50:00;100426.38;;;13.27;48.09
59110;BME280;44895;47.438;18.978;2023-03-02T11:53:10;100424.09;;;13.48;49.19
59110;BME280;44895;47.438;18.978;2023-03-02T11:56:16;100430.09;;;13.17;49.39
59110;BME280;44895;47.438;18.978;2023-03-02T11:59:19;100413.53;;;13.27;49.39
59110;BME280;44895;47.438;18.978;2023-03-02T12:02:24;100414.75;;;13.21;48.75
59110;BME280;44895;47.438;18.978;2023-03-02T12:05:29;100413.94;;;13.20;48.92
59110;BME280;44895;47.438;18.978;2023-03-02T12:08:35;100415.91;;;13.48;48.96
59110;BME280;44895;47.438;18.978;2023-03-02T12:11:39;100420.81;;;13.32;48.35
59110;BME280;44895;47.438;18.978;2023-03-02T12:14:43;100410.13;;;13.35;48.83
59110;BME280;44895;47.438;18.978;2023-03-02T12:17:46;100408.06;;;13.69;49.83
59110;BME280;44895;47.438;18.978;2023-03-02T12:21:24;100406.44;;;13.68;48.91
59110;BME280;44895;47.438;18.978;2023-03-02T12:27:34;100393.66;;;13.54;50.47
59110;BME280;44895;47.438;18.978;2023-03-02T12:30:38;100391.28;;;13.76;51.11
59110;BME280;44895;47.438;18.978;2023-03-02T12:33:44;100388.75;;;13.65;49.69
59110;BME280;44895;47.438;18.978;2023-03-02T12:36:57;100386.44;;;13.73;51.71
59110;BME280;44895;47.438;18.978;2023-03-02T12:46:26;100378.47;;;13.62;51.71
59110;BME280;44895;47.438;18.978;2023-03-02T12:52:34;100371.75;;;13.82;51.24
59110;BME280;44895;47.438;18.978;2023-03-02T12:55:38;100355.25;;;13.51;52.45
59110;BME280;44895;47.438;18.978;2023-03-02T12:58:47;100357.63;;;13.66;52.99
59110;BME280;44895;47.438;18.978;2023-03-02T13:01:51;100362.94;;;13.21;52.97
59110;BME280;44895;47.438;18.978;2023-03-02T13:04:59;100358.09;;;13.46;53.03
59110;BME280;44895;47.438;18.978;2023-03-02T13:08:16;100351.13;;;13.76;53.08
59110;BME280;44895;47.438;18.978;2023-03-02T13:11:38;100360.81;;;13.18;52.43
59110;BME280;44895;47.438;18.978;2023-03-02T13:14:43;100357.91;;;12.86;53.48
59110;BME280;44895;47.438;18.978;2023-03-02T13:17:52;100346.97;;;13.28;53.00
59110;BME280;44895;47.438;18.978;2023-03-02T13:20:57;100344.06;;;12.97;52.25
59110;BME280;44895;47.438;18.978;2023-03-02T13:24:01;100338.03;;;13.00;52.81
59110;BME280;44895;47.438;18.978;2023-03-02T13:27:06;100346.41;;;12.76;52.88
59110;BME280;44895;47.438;18.978;2023-03-02T13:30:18;100343.56;;;13.09;53.34
59110;BME280;44895;47.438;18.978;2023-03-02T13:33:24;100335.19;;;12.63;52.86
59110;BME280;44895;47.438;18.978;2023-03-02T13:36:35;100325.19;;;13.00;53.45
59110;BME280;44895;47.438;18.978;2023-03-02T13:39:40;100314.91;;;12.97;52.54
59110;BME280;44895;47.438;18.978;2023-03-02T13:42:44;100322.78;;;12.85;53.10
59110;BME280;44895;47.438;18.978;2023-03-02T13:45:52;100316.41;;;12.76;53.55
59110;BME280;44895;47.438;18.978;2023-03-02T13:48:57;100309.94;;;12.99;53.25
59110;BME280;44895;47.438;18.978;2023-03-02T13:52:34;100307.63;;;12.79;52.31
59110;BME280;44895;47.438;18.978;2023-03-02T13:55:31;100306.09;;;12.59;53.11
59110;BME280;44895;47.438;18.978;2023-03-02T13:58:35;100304.50;;;12.85;53.80
59110;BME280;44895;47.438;18.978;2023-03-02T14:01:42;100297.81;;;12.50;53.13
59110;BME280;44895;47.438;18.978;2023-03-02T14:04:48;100290.25;;;12.47;54.56
59110;BME280;44895;47.438;18.978;2023-03-02T14:07:53;100282.91;;;12.75;54.26
59110;BME280;44895;47.438;18.978;2023-03-02T14:10:57;100289.16;;;12.62;53.33
59110;BME280;44895;47.438;18.978;2023-03-02T14:14:03;100287.88;;;12.26;54.66
59110;BME280;44895;47.438;18.978;2023-03-02T14:17:12;100278.63;;;12.27;54.95
59110;BME280;44895;47.438;18.978;2023-03-02T14:20:17;100280.56;;;12.54;54.15
59110;BME280;44895;47.438;18.978;2023-03-02T14:23:22;100289.94;;;12.34;55.34
59110;BME280;44895;47.438;18.978;2023-03-02T14:29:30;100271.19;;;12.47;55.79
59110;BME280;44895;47.438;18.978;2023-03-02T14:32:34;100270.97;;;12.29;54.31
59110;BME280;44895;47.438;18.978;2023-03-02T14:35:38;100276.94;;;12.45;54.77
59110;BME280;44895;47.438;18.978;2023-03-02T14:38:41;100274.56;;;12.11;55.83
59110;BME280;44895;47.438;18.978;2023-03-02T14:41:45;100267.66;;;11.99;56.37
59110;BME280;44895;47.438;18.978;2023-03-02T14:44:49;100269.41;;;12.09;56.83
59110;BME280;44895;47.438;18.978;2023-03-02T14:47:53;100263.78;;;12.19;56.45
59110;BME280;44895;47.438;18.978;2023-03-02T14:50:57;100260.03;;;11.82;56.86
59110;BME280;44895;47.438;18.978;2023-03-02T14:54:02;100260.53;;;11.84;57.04
59110;BME280;44895;47.438;18.978;2023-03-02T14:57:26;100261.19;;;11.95;57.16
59110;BME280;44895;47.438;18.978;2023-03-02T15:00:30;100263.72;;;11.72;57.30
59110;BME280;44895;47.438;18.978;2023-03-02T15:03:34;100257.00;;;12.03;57.69
59110;BME280;44895;47.438;18.978;2023-03-02T15:06:38;100261.19;;;11.95;57.18
59110;BME280;44895;47.438;18.978;2023-03-02T15:09:42;100250.44;;;12.04;57.10
59110;BME280;44895;47.438;18.978;2023-03-02T15:12:49;100254.22;;;11.89;57.65
59110;BME280;44895;47.438;18.978;2023-03-02T15:15:52;100251.72;;;11.93;58.89
59110;BME280;44895;47.438;18.978;2023-03-02T15:18:56;100252.84;;;11.72;58.85
59110;BME280;44895;47.438;18.978;2023-03-02T15:22:00;100255.44;;;11.64;59.95
59110;BME280;44895;47.438;18.978;2023-03-02T15:25:04;100268.09;;;11.54;60.55
59110;BME280;44895;47.438;18.978;2023-03-02T15:28:08;100261.50;;;11.41;62.24
59110;BME280;44895;47.438;18.978;2023-03-02T15:31:13;100260.44;;;11.37;63.66
59110;BME280;44895;47.438;18.978;2023-03-02T15:34:17;100263.78;;;11.34;62.77
59110;BME280;44895;47.438;18.978;2023-03-02T15:37:20;100264.72;;;11.24;63.42
59110;BME280;44895;47.438;18.978;2023-03-02T15:40:24;100272.53;;;11.31;63.51
59110;BME280;44895;47.438;18.978;2023-03-02T15:43:28;100267.94;;;11.07;64.08
59110;BME280;44895;47.438;18.978;2023-03-02T15:46:31;100269.97;;;10.97;65.81
59110;BME280;44895;47.438;18.978;2023-03-02T15:49:35;100274.69;;;10.91;65.97
59110;BME280;44895;47.438;18.978;2023-03-02T15:52:39;100272.75;;;10.91;66.34
59110;BME280;44895;47.438;18.978;2023-03-02T15:55:43;100275.50;;;10.67;68.86
59110;BME280;44895;47.438;18.978;2023-03-02T15:58:48;100272.78;;;10.67;68.85
59110;BME280;44895;47.438;18.978;2023-03-02T16:01:52;100274.97;;;10.65;69.78
59110;BME280;44895;47.438;18.978;2023-03-02T16:04:56;100276.66;;;10.61;70.50
59110;BME280;44895;47.438;18.978;2023-03-02T16:07:59;100276.09;;;10.64;71.13
59110;BME280;44895;47.438;18.978;2023-03-02T16:11:04;100276.53;;;10.47;72.91
59110;BME280;44895;47.438;18.978;2023-03-02T16:14:08;100275.78;;;10.41;74.68
59110;BME280;44895;47.438;18.978;2023-03-02T16:17:11;100280.16;;;10.37;75.63
59110;BME280;44895;47.438;18.978;2023-03-02T16:20:15;100278.63;;;10.26;77.75
59110;BME280;44895;47.438;18.978;2023-03-02T16:23:19;100287.81;;;10.01;80.98
59110;BME280;44895;47.438;18.978;2023-03-02T16:26:22;100284.00;;;9.67;83.46
59110;BME280;44895;47.438;18.978;2023-03-02T16:29:26;100293.78;;;9.68;84.21
59110;BME280;44895;47.438;18.978;2023-03-02T16:32:30;100290.91;;;9.49;88.12